sensor_id;sensor_type;location;lat;lon;timestamp;pressure;altitude;pressure_sealevel;temperature;humidity
69153;BME280;56261;51.580;4.578;2023-03-03T00:02:23;102625.84;;;1.73;100.00
69153;BME280;56261;51.580;4.578;2023-03-03T00:04:48;102619.25;;;1.63;100.00
69153;BME280;56261;51.580;4.578;2023-03-03T00:07:14;102612.31;;;1.62;100.00
69153;BME280;56261;51.580;4.578;2023-03-03T00:09:46;102619.25;;;1.63;100.00
69153;BME280;56261;51.580;4.578;2023-03-03T00:12:20;102615.56;;;1.67;100.00
69153;BME280;56261;51.580;4.578;2023-03-03T00:14:47;102612.72;;;1.53;100.00
69153;BME280;56261;51.580;4.578;2023-03-03T00:17:24;102623.75;;;1.61;100.00
69153;BME280;56261;51.580;4.578;2023-03-03T00:19:50;102622.19;;;1.57;100.00
69153;BME280;56261;51.580;4.578;2023-03-03T00:22:38;102621.41;;;1.55;100.00
69153;BME280;56261;51.580;4.578;2023-03-03T00:25:32;102634.59;;;1.53;100.00
69153;BME280;56261;51.580;4.578;2023-03-03T00:28:13;102643.69;;;1.46;100.00
69153;BME280;56261;51.580;4.578;2023-03-03T00:30:40;102641.59;;;1.54;100.00
69153;BME280;56261;51.580;4.578;2023-03-03T00:33:35;102612.59;;;1.35;100.00
69153;BME280;56261;51.580;4.578;2023-03-03T00:38:41;102634.34;;;1.59;100.00
69153;BME280;56261;51.580;4.578;2023-03-03T00:41:23;102631.13;;;1.53;100.00
69153;BME280;56261;51.580;4.578;2023-03-03T00:43:49;102633.00;;;1.49;100.00
69153;BME280;56261;51.580;4.578;2023-03-03T00:46:17;102626.72;;;1.53;100.00
69153;BME280;56261;51.580;4.578;2023-03-03T00:48:44;102629.34;;;1.53;100.00
69153;BME280;56261;51.580;4.578;2023-03-03T00:53:47;102636.00;;;1.41;100.00
69153;BME280;56261;51.580;4.578;2023-03-03T00:56:13;102624.22;;;1.30;100.00
69153;BME280;56261;51.580;4.578;2023-03-03T00:58:38;102633.81;;;1.31;100.00
69153;BME280;56261;51.580;4.578;2023-03-03T01:01:04;102641.34;;;1.38;100.00
69153;BME280;56261;51.580;4.578;2023-03-03T01:03:29;102646.09;;;1.30;100.00
69153;BME280;56261;51.580;4.578;2023-03-03T01:05:55;102634.56;;;1.34;100.00
69153;BME280;56261;51.580;4.578;2023-03-03T01:08:21;102632.97;;;1.30;100.00
69153;BME280;56261;51.580;4.578;2023-03-03T01:10:52;102628.75;;;1.26;100.00
69153;BME280;56261;51.580;4.578;2023-03-03T01:13:19;102626.38;;;1.20;100.00
69153;BME280;56261;51.580;4.578;2023-03-03T01:15:46;102630.94;;;1.16;100.00
69153;BME280;56261;51.580;4.578;2023-03-03T01:18:13;102642.47;;;1.12;100.00
69153;BME280;56261;51.580;4.578;2023-03-03T01:20:39;102636.53;;;1.07;100.00
69153;BME280;56261;51.580;4.578;2023-03-03T01:23:05;102627.00;;;1.04;100.00
69153;BME280;56261;51.580;4.578;2023-03-03T01:25:31;102637.31;;;1.09;100.00
69153;BME280;56261;51.580;4.578;2023-03-03T01:27:56;102630.88;;;0.96;100.00
69153;BME280;56261;51.580;4.578;2023-03-03T01:30:23;102628.94;;;1.01;100.00
69153;BME280;56261;51.580;4.578;2023-03-03T01:32:49;102633.31;;;1.00;100.00
69153;BME280;56261;51.580;4.578;2023-03-03T01:35:15;102634.09;;;1.02;100.00
69153;BME280;56261;51.580;4.578;2023-03-03T01:37:40;102630.56;;;1.03;100.00
69153;BME280;56261;51.580;4.578;2023-03-03T01:40:12;102626.34;;;0.99;100.00
69153;BME280;56261;51.580;4.578;2023-03-03T01:42:38;102633.06;;;1.07;100.00
69153;BME280;56261;51.580;4.578;2023-03-03T01:45:25;102633.56;;;1.16;100.00
69153;BME280;56261;51.580;4.578;2023-03-03T01:47:51;102632.03;;;1.11;100.00
69153;BME280;56261;51.580;4.578;2023-03-03T01:53:12;102628.53;;;0.90;100.00
69153;BME280;56261;51.580;4.578;2023-03-03T01:55:41;102632.03;;;0.89;100.00
69153;BME280;56261;51.580;4.578;2023-03-03T01:58:12;102631.34;;;0.85;100.00
69153;BME280;56261;51.580;4.578;2023-03-03T02:00:41;102625.19;;;0.85;100.00
69153;BME280;56261;51.580;4.578;2023-03-03T02:03:07;102631.44;;;0.82;100.00
69153;BME280;56261;51.580;4.578;2023-03-03T02:05:34;102628.44;;;0.91;100.00
69153;BME280;56261;51.580;4.578;2023-03-03T02:08:00;102636.22;;;0.94;100.00
69153;BME280;56261;51.580;4.578;2023-03-03T02:10:26;102631.38;;;1.06;100.00
69153;BME280;56261;51.580;4.578;2023-03-03T02:12:56;102631.41;;;1.04;100.00
69153;BME280;56261;51.580;4.578;2023-03-03T02:17:52;102622.28;;;0.92;100.00
69153;BME280;56261;51.580;4.578;2023-03-03T02:20:31;102617.75;;;0.96;100.00
69153;BME280;56261;51.580;4.578;2023-03-03T02:28:32;102619.81;;;1.10;100.00
69153;BME280;56261;51.580;4.578;2023-03-03T02:30:59;102621.25;;;1.17;100.00
69153;BME280;56261;51.580;4.578;2023-03-03T02:33:26;102624.94;;;1.13;100.00
69153;BME280;56261;51.580;4.578;2023-03-03T02:35:52;102625.91;;;1.10;100.00
69153;BME280;56261;51.580;4.578;2023-03-03T02:38:36;102624.94;;;1.13;100.00
69153;BME280;56261;51.580;4.578;2023-03-03T02:44:22;102624.53;;;1.22;100.00
69153;BME280;56261;51.580;4.578;2023-03-03T02:46:49;102619.44;;;1.19;100.00
69153;BME280;56261;51.580;4.578;2023-03-03T02:49:21;102629.16;;;1.17;100.00
69153;BME280;56261;51.580;4.578;2023-03-03T02:51:47;102620.53;;;1.13;100.00
69153;BME280;56261;51.580;4.578;2023-03-03T02:54:16;102623.25;;;1.12;100.00
69153;BME280;56261;51.580;4.578;2023-03-03T02:56:41;102624.34;;;1.06;100.00
69153;BME280;56261;51.580;4.578;2023-03-03T02:59:07;102630.63;;;1.02;100.00
69153;BME280;56261;51.580;4.578;2023-03-03T03:01:33;102636.63;;;1.06;100.00
69153;BME280;56261;51.580;4.578;2023-03-03T03:04:15;102634.91;;;1.04;100.00
69153;BME280;56261;51.580;4.578;2023-03-03T03:06:41;102633.19;;;1.03;100.00
69153;BME280;56261;51.580;4.578;2023-03-03T03:09:08;102633.31;;;1.00;100.00
69153;BME280;56261;51.580;4.578;2023-03-03T03:11:35;102633.91;;;1.07;100.00
69153;BME280;56261;51.580;4.578;2023-03-03T03:14:01;102630.53;;;1.05;100.00
69153;BME280;56261;51.580;4.578;2023-03-03T03:16:27;102631.41;;;1.04;100.00
69153;BME280;56261;51.580;4.578;2023-03-03T03:18:52;102630.38;;;1.08;100.00
69153;BME280;56261;51.580;4.578;2023-03-03T03:21:18;102630.63;;;1.02;100.00
69153;BME280;56261;51.580;4.578;2023-03-03T03:23:43;102629.84;;;1.00;100.00
69153;BME280;56261;51.580;4.578;2023-03-03T03:26:09;102638.94;;;0.91;100.00
69153;BME280;56261;51.580;4.578;2023-03-03T03:28:35;102634.88;;;0.84;100.00
69153;BME280;56261;51.580;4.578;2023-03-03T03:31:01;102634.31;;;0.76;100.00
69153;BME280;56261;51.580;4.578;2023-03-03T03:33:27;102635.84;;;0.59;100.00
69153;BME280;56261;51.580;4.578;2023-03-03T03:35:53;102648.91;;;0.61;100.00
69153;BME280;56261;51.580;4.578;2023-03-03T03:38:20;102656.22;;;0.53;100.00
69153;BME280;56261;51.580;4.578;2023-03-03T03:40:46;102655.63;;;0.46;100.00
69153;BME280;56261;51.580;4.578;2023-03-03T03:43:11;102651.28;;;0.45;100.00
69153;BME280;56261;51.580;4.578;2023-03-03T03:45:37;102655.25;;;0.55;100.00
69153;BME280;56261;51.580;4.578;2023-03-03T03:48:02;102654.63;;;0.49;100.00
69153;BME280;56261;51.580;4.578;2023-03-03T03:50:28;102656.19;;;0.54;100.00
69153;BME280;56261;51.580;4.578;2023-03-03T03:52:54;102655.50;;;0.49;100.00
69153;BME280;56261;51.580;4.578;2023-03-03T03:55:19;102650.38;;;0.46;100.00
69153;BME280;56261;51.580;4.578;2023-03-03T03:57:46;102664.47;;;0.44;100.00
69153;BME280;56261;51.580;4.578;2023-03-03T04:00:12;102663.63;;;0.43;100.00
69153;BME280;56261;51.580;4.578;2023-03-03T04:02:38;102656.47;;;0.47;100.00
69153;BME280;56261;51.580;4.578;2023-03-03T04:05:04;102666.72;;;0.53;100.00
69153;BME280;56261;51.580;4.578;2023-03-03T04:07:29;102652.34;;;0.63;100.00
69153;BME280;56261;51.580;4.578;2023-03-03T04:09:54;102658.56;;;0.60;100.00
69153;BME280;56261;51.580;4.578;2023-03-03T04:12:20;102659.28;;;0.64;100.00
69153;BME280;56261;51.580;4.578;2023-03-03T04:14:45;102661.97;;;0.62;100.00
69153;BME280;56261;51.580;4.578;2023-03-03T04:17:18;102670.94;;;0.57;100.00
69153;BME280;56261;51.580;4.578;2023-03-03T04:19:44;102667.06;;;0.67;100.00
69153;BME280;56261;51.580;4.578;2023-03-03T04:22:10;102670.63;;;0.65;100.00
69153;BME280;56261;51.580;4.578;2023-03-03T04:24:37;102681.22;;;0.63;100.00
69153;BME280;56261;51.580;4.578;2023-03-03T04:27:03;102669.84;;;0.62;100.00
69153;BME280;56261;51.580;4.578;2023-03-03T04:29:28;102670.47;;;0.69;100.00
69153;BME280;56261;51.580;4.578;2023-03-03T04:31:54;102675.09;;;0.62;100.00
69153;BME280;56261;51.580;4.578;2023-03-03T04:34:19;102676.06;;;0.60;100.00
69153;BME280;56261;51.580;4.578;2023-03-03T04:36:44;102684.56;;;0.67;100.00
69153;BME280;56261;51.580;4.578;2023-03-03T04:39:11;102678.19;;;0.74;100.00
69153;BME280;56261;51.580;4.578;2023-03-03T04:41:36;102686.28;;;0.68;100.00
69153;BME280;56261;51.580;4.578;2023-03-03T04:44:02;102688.84;;;0.69;100.00
69153;BME280;56261;51.580;4.578;2023-03-03T04:46:27;102680.91;;;0.71;100.00
69153;BME280;56261;51.580;4.578;2023-03-03T04:48:52;102679.81;;;0.76;100.00
69153;BME280;56261;51.580;4.578;2023-03-03T04:51:18;102682.13;;;0.62;100.00
69153;BME280;56261;51.580;4.578;2023-03-03T04:53:43;102681.66;;;0.74;100.00
69153;BME280;56261;51.580;4.578;2023-03-03T04:56:09;102671.88;;;0.78;100.00
69153;BME280;56261;51.580;4.578;2023-03-03T04:58:34;102682.47;;;0.76;100.00
69153;BME280;56261;51.580;4.578;2023-03-03T05:01:00;102682.47;;;0.76;100.00
69153;BME280;56261;51.580;4.578;2023-03-03T05:03:25;102694.59;;;0.79;100.00
69153;BME280;56261;51.580;4.578;2023-03-03T05:05:51;102684.81;;;0.82;100.00
69153;BME280;56261;51.580;4.578;2023-03-03T05:08:16;102683.25;;;0.78;100.00
69153;BME280;56261;51.580;4.578;2023-03-03T05:10:42;102692.41;;;0.68;100.00
69153;BME280;56261;51.580;4.578;2023-03-03T05:13:08;102687.31;;;0.64;100.00
69153;BME280;56261;51.580;4.578;2023-03-03T05:15:34;102697.34;;;0.76;100.00
69153;BME280;56261;51.580;4.578;2023-03-03T05:17:59;102690.50;;;0.72;100.00
69153;BME280;56261;51.580;4.578;2023-03-03T05:20:25;102687.44;;;0.82;100.00
69153;BME280;56261;51.580;4.578;2023-03-03T05:22:51;102691.53;;;0.68;100.00
69153;BME280;56261;51.580;4.578;2023-03-03T05:25:17;102700.03;;;0.74;100.00
69153;BME280;56261;51.580;4.578;2023-03-03T05:27:43;102695.94;;;0.67;100.00
69153;BME280;56261;51.580;4.578;2023-03-03T05:30:09;102688.06;;;0.67;100.00
69153;BME280;56261;51.580;4.578;2023-03-03T05:32:35;102698.81;;;0.61;100.00
69153;BME280;56261;51.580;4.578;2023-03-03T05:35:02;102703.94;;;0.64;100.00
69153;BME280;56261;51.580;4.578;2023-03-03T05:37:28;102705.69;;;0.64;100.00
69153;BME280;56261;51.580;4.578;2023-03-03T05:39:53;102704.38;;;0.75;100.00
69153;BME280;56261;51.580;4.578;2023-03-03T05:42:19;102702.72;;;0.73;100.00
69153;BME280;56261;51.580;4.578;2023-03-03T05:44:44;102706.31;;;0.70;100.00
69153;BME280;56261;51.580;4.578;2023-03-03T05:47:09;102689.28;;;0.58;100.00
69153;BME280;56261;51.580;4.578;2023-03-03T05:49:35;102706.28;;;0.72;100.00
69153;BME280;56261;51.580;4.578;2023-03-03T05:52:00;102699.47;;;0.66;100.00
69153;BME280;56261;51.580;4.578;2023-03-03T05:54:26;102708.75;;;0.75;100.00
69153;BME280;56261;51.580;4.578;2023-03-03T05:56:51;102710.47;;;0.76;100.00
69153;BME280;56261;51.580;4.578;2023-03-03T05:59:17;102714.88;;;0.75;100.00
69153;BME280;56261;51.580;4.578;2023-03-03T06:01:43;102720.19;;;0.74;100.00
69153;BME280;56261;51.580;4.578;2023-03-03T06:04:09;102711.53;;;0.72;100.00
69153;BME280;56261;51.580;4.578;2023-03-03T06:06:35;102716.94;;;0.67;100.00
69153;BME280;56261;51.580;4.578;2023-03-03T06:09:00;102716.03;;;0.68;100.00
69153;BME280;56261;51.580;4.578;2023-03-03T06:11:25;102716.06;;;0.67;100.00
69153;BME280;56261;51.580;4.578;2023-03-03T06:13:51;102724.53;;;0.75;100.00
69153;BME280;56261;51.580;4.578;2023-03-03T06:16:16;102725.50;;;0.72;100.00
69153;BME280;56261;51.580;4.578;2023-03-03T06:18:42;102720.03;;;0.78;100.00
69153;BME280;56261;51.580;4.578;2023-03-03T06:21:07;102725.97;;;0.60;100.00
69153;BME280;56261;51.580;4.578;2023-03-03T06:23:33;102732.84;;;0.62;100.00
69153;BME280;56261;51.580;4.578;2023-03-03T06:25:58;102731.28;;;0.58;100.00
69153;BME280;56261;51.580;4.578;2023-03-03T06:28:24;102735.38;;;0.66;100.00
69153;BME280;56261;51.580;4.578;2023-03-03T06:30:54;102739.44;;;0.51;100.00
69153;BME280;56261;51.580;4.578;2023-03-03T06:33:19;102739.00;;;0.63;100.00
69153;BME280;56261;51.580;4.578;2023-03-03T06:35:51;102745.75;;;0.69;100.00
69153;BME280;56261;51.580;4.578;2023-03-03T06:38:17;102748.69;;;0.61;100.00
69153;BME280;56261;51.580;4.578;2023-03-03T06:40:44;102748.38;;;0.69;100.00
69153;BME280;56261;51.580;4.578;2023-03-03T06:43:09;102754.47;;;0.69;100.00
69153;BME280;56261;51.580;4.578;2023-03-03T06:45:34;102755.47;;;0.67;100.00
69153;BME280;56261;51.580;4.578;2023-03-03T06:48:00;102768.38;;;0.73;100.00
69153;BME280;56261;51.580;4.578;2023-03-03T06:50:26;102766.50;;;0.76;100.00
69153;BME280;56261;51.580;4.578;2023-03-03T06:53:09;102764.72;;;0.77;100.00
69153;BME280;56261;51.580;4.578;2023-03-03T06:55:35;102774.25;;;0.79;100.00
69153;BME280;56261;51.580;4.578;2023-03-03T06:58:00;102769.44;;;0.91;100.00
69153;BME280;56261;51.580;4.578;2023-03-03T07:00:27;102771.16;;;0.92;100.00
69153;BME280;56261;51.580;4.578;2023-03-03T07:03:01;102772.63;;;0.99;100.00
69153;BME280;56261;51.580;4.578;2023-03-03T07:05:30;102770.53;;;1.07;100.00
69153;BME280;56261;51.580;4.578;2023-03-03T07:07:57;102763.91;;;0.98;100.00
69153;BME280;56261;51.580;4.578;2023-03-03T07:10:31;102776.59;;;1.09;100.00
69153;BME280;56261;51.580;4.578;2023-03-03T07:13:15;102776.59;;;1.09;100.00
69153;BME280;56261;51.580;4.578;2023-03-03T07:15:41;102771.47;;;1.06;100.00
69153;BME280;56261;51.580;4.578;2023-03-03T07:18:43;102773.34;;;1.02;100.00
69153;BME280;56261;51.580;4.578;2023-03-03T07:21:16;102771.06;;;1.17;100.00
69153;BME280;56261;51.580;4.578;2023-03-03T07:23:43;102766.28;;;1.27;100.00
69153;BME280;56261;51.580;4.578;2023-03-03T07:26:12;102788.66;;;1.37;100.00
69153;BME280;56261;51.580;4.578;2023-03-03T07:28:43;102775.97;;;1.47;100.00
69153;BME280;56261;51.580;4.578;2023-03-03T07:31:41;102777.16;;;1.39;100.00
69153;BME280;56261;51.580;4.578;2023-03-03T07:34:19;102779.72;;;1.41;100.00
69153;BME280;56261;51.580;4.578;2023-03-03T07:36:45;102782.78;;;1.30;100.00
69153;BME280;56261;51.580;4.578;2023-03-03T07:42:09;102793.66;;;1.43;100.00
69153;BME280;56261;51.580;4.578;2023-03-03T07:44:38;102792.88;;;1.41;100.00
69153;BME280;56261;51.580;4.578;2023-03-03T07:47:24;102797.06;;;1.45;100.00
69153;BME280;56261;51.580;4.578;2023-03-03T07:49:51;102799.09;;;1.38;100.00
69153;BME280;56261;51.580;4.578;2023-03-03T07:52:23;102791.03;;;1.43;100.00
69153;BME280;56261;51.580;4.578;2023-03-03T07:54:51;102800.44;;;1.49;100.00
69153;BME280;56261;51.580;4.578;2023-03-03T07:57:23;102795.59;;;1.60;100.00
69153;BME280;56261;51.580;4.578;2023-03-03T07:59:58;102808.44;;;1.68;100.00
69153;BME280;56261;51.580;4.578;2023-03-03T08:02:40;102804.94;;;1.67;100.00
69153;BME280;56261;51.580;4.578;2023-03-03T08:05:26;102809.06;;;1.74;100.00
69153;BME280;56261;51.580;4.578;2023-03-03T08:07:52;102811.75;;;1.73;100.00
69153;BME280;56261;51.580;4.578;2023-03-03T08:10:48;102815.69;;;1.83;100.00
69153;BME280;56261;51.580;4.578;2023-03-03T08:13:26;102815.38;;;1.91;100.00
69153;BME280;56261;51.580;4.578;2023-03-03T08:16:01;102814.84;;;1.82;100.00
69153;BME280;56261;51.580;4.578;2023-03-03T08:18:43;102828.53;;;1.91;100.00
69153;BME280;56261;51.580;4.578;2023-03-03T08:23:38;102827.69;;;1.90;100.00
69153;BME280;56261;51.580;4.578;2023-03-03T08:26:04;102834.84;;;1.86;100.00
69153;BME280;56261;51.580;4.578;2023-03-03T08:28:30;102829.06;;;1.99;100.00
69153;BME280;56261;51.580;4.578;2023-03-03T08:30:55;102828.09;;;2.01;100.00
69153;BME280;56261;51.580;4.578;2023-03-03T08:33:20;102838.28;;;2.09;100.00
69153;BME280;56261;51.580;4.578;2023-03-03T08:35:46;102837.72;;;2.01;100.00
69153;BME280;56261;51.580;4.578;2023-03-03T08:38:13;102831.03;;;2.14;100.00
69153;BME280;56261;51.580;4.578;2023-03-03T08:40:39;102831.13;;;2.13;100.00
69153;BME280;56261;51.580;4.578;2023-03-03T08:43:05;102825.63;;;2.38;100.00
69153;BME280;56261;51.580;4.578;2023-03-03T08:45:30;102839.19;;;2.49;100.00
69153;BME280;56261;51.580;4.578;2023-03-03T08:47:56;102834.19;;;2.22;100.00
69153;BME280;56261;51.580;4.578;2023-03-03T08:50:24;102843.88;;;2.42;100.00
69153;BME280;56261;51.580;4.578;2023-03-03T08:52:49;102834.47;;;2.37;100.00
69153;BME280;56261;51.580;4.578;2023-03-03T08:55:15;102834.84;;;2.48;100.00
69153;BME280;56261;51.580;4.578;2023-03-03T08:57:40;102845.25;;;2.51;100.00
69153;BME280;56261;51.580;4.578;2023-03-03T09:00:08;102852.00;;;2.57;100.00
69153;BME280;56261;51.580;4.578;2023-03-03T09:02:34;102844.84;;;2.60;100.00
69153;BME280;56261;51.580;4.578;2023-03-03T09:05:00;102847.06;;;2.69;100.00
69153;BME280;56261;51.580;4.578;2023-03-03T09:07:25;102849.69;;;2.69;100.00
69153;BME280;56261;51.580;4.578;2023-03-03T09:09:50;102845.56;;;2.64;100.00
69153;BME280;56261;51.580;4.578;2023-03-03T09:12:27;102856.50;;;2.55;100.00
69153;BME280;56261;51.580;4.578;2023-03-03T09:14:55;102852.56;;;2.44;100.00
69153;BME280;56261;51.580;4.578;2023-03-03T09:17:33;102853.94;;;2.53;100.00
69153;BME280;56261;51.580;4.578;2023-03-03T09:20:16;102858.16;;;2.57;100.00
69153;BME280;56261;51.580;4.578;2023-03-03T09:22:45;102857.31;;;2.76;100.00
69153;BME280;56261;51.580;4.578;2023-03-03T09:25:32;102863.59;;;2.92;100.00
69153;BME280;56261;51.580;4.578;2023-03-03T09:27:59;102857.84;;;2.84;100.00
69153;BME280;56261;51.580;4.578;2023-03-03T09:32:52;102859.59;;;2.83;100.00
69153;BME280;56261;51.580;4.578;2023-03-03T09:35:34;102866.59;;;3.03;100.00
69153;BME280;56261;51.580;4.578;2023-03-03T09:38:01;102867.91;;;3.14;100.00
69153;BME280;56261;51.580;4.578;2023-03-03T09:43:34;102866.69;;;3.02;100.00
69153;BME280;56261;51.580;4.578;2023-03-03T09:51:50;102861.75;;;3.32;100.00
69153;BME280;56261;51.580;4.578;2023-03-03T09:54:24;102859.56;;;3.42;100.00
69153;BME280;56261;51.580;4.578;2023-03-03T10:07:45;102884.72;;;3.30;100.00
69153;BME280;56261;51.580;4.578;2023-03-03T10:17:07;102881.84;;;3.53;100.00
69153;BME280;56261;51.580;4.578;2023-03-03T10:20:11;102885.75;;;3.64;100.00
69153;BME280;56261;51.580;4.578;2023-03-03T10:26:10;102886.84;;;3.60;100.00
69153;BME280;56261;51.580;4.578;2023-03-03T10:52:21;102870.47;;;4.57;100.00
69153;BME280;56261;51.580;4.578;2023-03-03T11:00:54;102864.59;;;4.86;100.00
69153;BME280;56261;51.580;4.578;2023-03-03T11:03:50;102862.50;;;5.24;100.00
69153;BME280;56261;51.580;4.578;2023-03-03T11:06:25;102864.28;;;4.92;100.00
69153;BME280;56261;51.580;4.578;2023-03-03T11:09:02;102862.44;;;5.10;100.00
69153;BME280;56261;51.580;4.578;2023-03-03T11:11:54;102859.69;;;5.43;100.00
69153;BME280;56261;51.580;4.578;2023-03-03T11:14:29;102861.50;;;5.43;100.00
69153;BME280;56261;51.580;4.578;2023-03-03T11:28:11;102853.88;;;5.52;100.00
69153;BME280;56261;51.580;4.578;2023-03-03T11:33:46;102852.56;;;6.21;100.00
69153;BME280;56261;51.580;4.578;2023-03-03T11:36:30;102839.94;;;6.11;100.00
69153;BME280;56261;51.580;4.578;2023-03-03T11:41:35;102850.91;;;5.58;100.00
69153;BME280;56261;51.580;4.578;2023-03-03T11:49:39;102834.44;;;5.83;100.00
69153;BME280;56261;51.580;4.578;2023-03-03T11:57:43;102835.47;;;6.56;100.00
69153;BME280;56261;51.580;4.578;2023-03-03T12:11:26;102827.09;;;6.19;100.00
69153;BME280;56261;51.580;4.578;2023-03-03T12:14:44;102836.13;;;5.85;100.00
69153;BME280;56261;51.580;4.578;2023-03-03T12:17:00;102833.75;;;5.80;100.00
69153;BME280;56261;51.580;4.578;2023-03-03T12:22:28;102815.28;;;5.64;100.00
69153;BME280;56261;51.580;4.578;2023-03-03T12:27:51;102823.06;;;6.42;100.00
69153;BME280;56261;51.580;4.578;2023-03-03T12:30:56;102820.84;;;7.06;100.00
69153;BME280;56261;51.580;4.578;2023-03-03T12:33:36;102810.66;;;7.54;100.00
69153;BME280;56261;51.580;4.578;2023-03-03T12:39:00;102808.19;;;7.78;100.00
69153;BME280;56261;51.580;4.578;2023-03-03T12:41:52;102807.00;;;7.01;100.00
69153;BME280;56261;51.580;4.578;2023-03-03T12:44:40;102815.78;;;6.74;100.00
69153;BME280;56261;51.580;4.578;2023-03-03T12:47:09;102812.53;;;6.40;100.00
69153;BME280;56261;51.580;4.578;2023-03-03T12:55:43;102807.63;;;6.34;100.00
69153;BME280;56261;51.580;4.578;2023-03-03T13:01:29;102805.94;;;6.62;100.00
69153;BME280;56261;51.580;4.578;2023-03-03T13:04:30;102803.72;;;6.97;100.00
69153;BME280;56261;51.580;4.578;2023-03-03T13:07:21;102797.13;;;7.17;100.00
69153;BME280;56261;51.580;4.578;2023-03-03T13:10:12;102792.28;;;7.24;100.00
69153;BME280;56261;51.580;4.578;2023-03-03T13:12:49;102794.53;;;7.30;100.00
69153;BME280;56261;51.580;4.578;2023-03-03T13:15:27;102788.50;;;7.41;100.00
69153;BME280;56261;51.580;4.578;2023-03-03T13:18:14;102783.19;;;7.41;100.00
69153;BME280;56261;51.580;4.578;2023-03-03T13:26:35;102776.47;;;7.62;100.00
69153;BME280;56261;51.580;4.578;2023-03-03T13:31:54;102771.53;;;7.96;100.00
69153;BME280;56261;51.580;4.578;2023-03-03T13:37:03;102771.69;;;7.55;100.00
69153;BME280;56261;51.580;4.578;2023-03-03T13:39:32;102771.84;;;7.79;100.00
69153;BME280;56261;51.580;4.578;2023-03-03T13:42:05;102770.94;;;7.65;100.00
69153;BME280;56261;51.580;4.578;2023-03-03T13:44:41;102769.94;;;7.94;100.00
69153;BME280;56261;51.580;4.578;2023-03-03T13:47:31;102764.19;;;7.87;100.00
69153;BME280;56261;51.580;4.578;2023-03-03T13:50:02;102769.41;;;8.01;100.00
69153;BME280;56261;51.580;4.578;2023-03-03T13:55:28;102755.38;;;8.50;100.00
69153;BME280;56261;51.580;4.578;2023-03-03T13:58:36;102766.34;;;8.46;100.00
69153;BME280;56261;51.580;4.578;2023-03-03T14:04:03;102760.16;;;7.94;100.00
69153;BME280;56261;51.580;4.578;2023-03-03T14:06:30;102759.94;;;7.84;100.00
69153;BME280;56261;51.580;4.578;2023-03-03T14:09:17;102764.19;;;7.87;100.00
69153;BME280;56261;51.580;4.578;2023-03-03T14:17:24;102756.69;;;7.54;100.00
69153;BME280;56261;51.580;4.578;2023-03-03T14:22:48;102749.13;;;8.00;100.00
69153;BME280;56261;51.580;4.578;2023-03-03T14:25:15;102750.91;;;8.38;100.00
69153;BME280;56261;51.580;4.578;2023-03-03T14:38:12;102721.34;;;8.56;100.00
69153;BME280;56261;51.580;4.578;2023-03-03T14:40:39;102732.34;;;8.75;100.00
69153;BME280;56261;51.580;4.578;2023-03-03T14:43:55;102731.47;;;8.38;100.00
69153;BME280;56261;51.580;4.578;2023-03-03T14:46:36;102736.25;;;8.07;100.00
69153;BME280;56261;51.580;4.578;2023-03-03T14:49:05;102742.06;;;7.61;100.00
69153;BME280;56261;51.580;4.578;2023-03-03T14:51:48;102735.47;;;7.54;100.00
69153;BME280;56261;51.580;4.578;2023-03-03T14:54:29;102747.94;;;7.39;100.00
69153;BME280;56261;51.580;4.578;2023-03-03T14:59:25;102737.34;;;8.04;100.00
69153;BME280;56261;51.580;4.578;2023-03-03T15:04:42;102734.56;;;8.44;100.00
69153;BME280;56261;51.580;4.578;2023-03-03T15:07:32;102727.78;;;8.40;100.00
69153;BME280;56261;51.580;4.578;2023-03-03T15:09:59;102720.19;;;8.34;100.00
69153;BME280;56261;51.580;4.578;2023-03-03T15:17:35;102712.03;;;8.11;100.00
69153;BME280;56261;51.580;4.578;2023-03-03T15:25:52;102711.38;;;7.69;100.00
69153;BME280;56261;51.580;4.578;2023-03-03T15:28:44;102711.91;;;7.75;100.00
69153;BME280;56261;51.580;4.578;2023-03-03T15:36:58;102708.31;;;7.76;100.00
69153;BME280;56261;51.580;4.578;2023-03-03T15:42:13;102704.78;;;7.62;100.00
69153;BME280;56261;51.580;4.578;2023-03-03T15:47:48;102701.69;;;7.16;100.00
69153;BME280;56261;51.580;4.578;2023-03-03T16:01:55;102700.91;;;7.01;100.00
69153;BME280;56261;51.580;4.578;2023-03-03T16:04:28;102696.41;;;7.16;100.00
69153;BME280;56261;51.580;4.578;2023-03-03T16:07:04;102701.22;;;7.23;100.00
69153;BME280;56261;51.580;4.578;2023-03-03T16:12:35;102698.13;;;7.30;100.00
69153;BME280;56261;51.580;4.578;2023-03-03T16:18:34;102702.94;;;7.37;100.00
69153;BME280;56261;51.580;4.578;2023-03-03T16:25:47;102702.22;;;7.21;100.00
69153;BME280;56261;51.580;4.578;2023-03-03T16:33:36;102704.25;;;7.17;100.00
69153;BME280;56261;51.580;4.578;2023-03-03T16:36:26;102704.25;;;7.17;100.00
69153;BME280;56261;51.580;4.578;2023-03-03T16:39:12;102705.09;;;7.18;100.00
69153;BME280;56261;51.580;4.578;2023-03-03T16:41:54;102703.38;;;7.04;100.00
69153;BME280;56261;51.580;4.578;2023-03-03T16:47:17;102714.00;;;6.90;100.00
69153;BME280;56261;51.580;4.578;2023-03-03T16:52:40;102715.72;;;6.91;100.00
69153;BME280;56261;51.580;4.578;2023-03-03T16:55:19;102721.31;;;6.86;100.00
69153;BME280;56261;51.580;4.578;2023-03-03T16:58:44;102725.78;;;6.85;100.00
69153;BME280;56261;51.580;4.578;2023-03-03T17:03:59;102720.41;;;6.73;100.00
69153;BME280;56261;51.580;4.578;2023-03-03T17:06:49;102727.91;;;6.66;100.00
69153;BME280;56261;51.580;4.578;2023-03-03T17:17:55;102738.03;;;6.45;100.00
69153;BME280;56261;51.580;4.578;2023-03-03T17:20:36;102753.09;;;6.44;100.00
69153;BME280;56261;51.580;4.578;2023-03-03T17:28:29;102755.66;;;6.46;100.00
69153;BME280;56261;51.580;4.578;2023-03-03T17:44:39;102775.72;;;6.36;100.00